Sumperk, Czech Republic
Current Conditions -  °F | °C
As of 2:30 AM on Tuesday 25 Nov 2014 (Local Time) from LKMT Reporting Station
Haze Haze  
Wind Chill: 30°   Ceiling: 2700
Heat Index: 37°   Visibility: 2.5mi
Dew Point: 36°   Wind: 10mph
Humidity: 93%   Direction: 230°SW
Pressure: 30.33"   Gusts: NA
Location:  49.97°N, 16.97°E
Report Text: LKMT 250030Z 23009KT 4000 BR OVC027 03/02 Q1027 NOSIG
Loading
Personal Weather Stations






























Interactive Weather Map New forecast layout! Learn more

10-Day Weather Forecast

Advertisements
Track Severe Weather on mobile